sensor_id;sensor_type;location;lat;lon;timestamp;pressure;altitude;pressure_sealevel;temperature;humidity
30182;BME280;16990;49.056;9.240;2022-09-17T00:01:34;98398.41;;;9.42;100.00
30182;BME280;16990;49.056;9.240;2022-09-17T00:04:01;98387.25;;;9.45;100.00
30182;BME280;16990;49.056;9.240;2022-09-17T00:06:30;98380.09;;;9.46;100.00
30182;BME280;16990;49.056;9.240;2022-09-17T00:08:57;98390.00;;;9.62;100.00
30182;BME280;16990;49.056;9.240;2022-09-17T00:11:27;98386.22;;;9.46;100.00
30182;BME280;16990;49.056;9.240;2022-09-17T00:13:54;98393.16;;;9.47;100.00
30182;BME280;16990;49.056;9.240;2022-09-17T00:16:27;98387.75;;;9.30;100.00
30182;BME280;16990;49.056;9.240;2022-09-17T00:18:55;98389.41;;;9.20;100.00
30182;BME280;16990;49.056;9.240;2022-09-17T00:21:22;98393.78;;;9.14;100.00
30182;BME280;16990;49.056;9.240;2022-09-17T00:23:52;98394.25;;;9.11;100.00
30182;BME280;16990;49.056;9.240;2022-09-17T00:26:19;98388.00;;;9.17;100.00
30182;BME280;16990;49.056;9.240;2022-09-17T00:28:49;98383.34;;;9.24;100.00
30182;BME280;16990;49.056;9.240;2022-09-17T00:31:16;98384.75;;;9.15;100.00
30182;BME280;16990;49.056;9.240;2022-09-17T00:33:43;98395.16;;;9.28;100.00
30182;BME280;16990;49.056;9.240;2022-09-17T00:36:09;98382.78;;;9.22;100.00
30182;BME280;16990;49.056;9.240;2022-09-17T00:38:37;98389.50;;;9.13;100.00
30182;BME280;16990;49.056;9.240;2022-09-17T00:41:04;98389.25;;;9.14;100.00
30182;BME280;16990;49.056;9.240;2022-09-17T00:43:37;98391.38;;;9.01;100.00
30182;BME280;16990;49.056;9.240;2022-09-17T00:46:15;98391.00;;;9.09;100.00
30182;BME280;16990;49.056;9.240;2022-09-17T00:48:43;98393.19;;;9.12;100.00
30182;BME280;16990;49.056;9.240;2022-09-17T00:51:14;98385.78;;;9.14;100.00
30182;BME280;16990;49.056;9.240;2022-09-17T00:53:44;98393.66;;;9.21;100.00
30182;BME280;16990;49.056;9.240;2022-09-17T00:56:17;98393.56;;;9.04;100.00
30182;BME280;16990;49.056;9.240;2022-09-17T00:58:45;98396.56;;;9.19;100.00
30182;BME280;16990;49.056;9.240;2022-09-17T01:01:14;98397.84;;;9.05;100.00
30182;BME280;16990;49.056;9.240;2022-09-17T01:03:41;98404.56;;;9.07;100.00
30182;BME280;16990;49.056;9.240;2022-09-17T01:06:13;98407.00;;;9.09;100.00
30182;BME280;16990;49.056;9.240;2022-09-17T01:08:56;98411.75;;;8.95;100.00
30182;BME280;16990;49.056;9.240;2022-09-17T01:11:38;98396.91;;;8.99;100.00
30182;BME280;16990;49.056;9.240;2022-09-17T01:14:21;98404.69;;;9.01;100.00
30182;BME280;16990;49.056;9.240;2022-09-17T01:16:56;98404.44;;;9.14;100.00
30182;BME280;16990;49.056;9.240;2022-09-17T01:19:56;98409.09;;;9.30;100.00
30182;BME280;16990;49.056;9.240;2022-09-17T01:22:33;98406.09;;;9.15;100.00
30182;BME280;16990;49.056;9.240;2022-09-17T01:25:20;98408.66;;;9.10;100.00
30182;BME280;16990;49.056;9.240;2022-09-17T01:28:16;98417.09;;;8.95;100.00
30182;BME280;16990;49.056;9.240;2022-09-17T01:31:00;98414.91;;;9.04;100.00
30182;BME280;16990;49.056;9.240;2022-09-17T01:33:37;98424.88;;;8.97;100.00
30182;BME280;16990;49.056;9.240;2022-09-17T01:36:19;98428.59;;;8.96;100.00
30182;BME280;16990;49.056;9.240;2022-09-17T01:38:53;98416.50;;;8.81;100.00
30182;BME280;16990;49.056;9.240;2022-09-17T01:41:30;98413.28;;;9.03;100.00
30182;BME280;16990;49.056;9.240;2022-09-17T01:44:01;98418.72;;;8.84;100.00
30182;BME280;16990;49.056;9.240;2022-09-17T01:46:34;98410.81;;;8.78;100.00
30182;BME280;16990;49.056;9.240;2022-09-17T01:49:04;98417.88;;;8.72;100.00
30182;BME280;16990;49.056;9.240;2022-09-17T01:51:35;98419.03;;;8.88;100.00
30182;BME280;16990;49.056;9.240;2022-09-17T01:54:05;98421.84;;;9.05;100.00
30182;BME280;16990;49.056;9.240;2022-09-17T01:56:37;98415.09;;;8.90;100.00
30182;BME280;16990;49.056;9.240;2022-09-17T01:59:10;98418.00;;;8.77;100.00
30182;BME280;16990;49.056;9.240;2022-09-17T02:01:44;98420.44;;;8.67;100.00
30182;BME280;16990;49.056;9.240;2022-09-17T02:04:16;98432.63;;;8.86;100.00
30182;BME280;16990;49.056;9.240;2022-09-17T02:06:47;98425.19;;;8.77;100.00
30182;BME280;16990;49.056;9.240;2022-09-17T02:09:18;98419.97;;;8.82;100.00
30182;BME280;16990;49.056;9.240;2022-09-17T02:11:50;98426.72;;;8.84;100.00
30182;BME280;16990;49.056;9.240;2022-09-17T02:14:22;98432.75;;;8.91;100.00
30182;BME280;16990;49.056;9.240;2022-09-17T02:16:56;98427.41;;;9.03;100.00
30182;BME280;16990;49.056;9.240;2022-09-17T02:19:27;98425.31;;;8.93;100.00
30182;BME280;16990;49.056;9.240;2022-09-17T02:22:01;98429.84;;;9.16;100.00
30182;BME280;16990;49.056;9.240;2022-09-17T02:24:32;98429.03;;;9.16;100.00
30182;BME280;16990;49.056;9.240;2022-09-17T02:27:05;98430.06;;;8.91;100.00
30182;BME280;16990;49.056;9.240;2022-09-17T02:29:36;98430.44;;;9.07;100.00
30182;BME280;16990;49.056;9.240;2022-09-17T02:32:05;98422.66;;;8.93;100.00
30182;BME280;16990;49.056;9.240;2022-09-17T02:34:32;98425.56;;;9.04;100.00
30182;BME280;16990;49.056;9.240;2022-09-17T02:36:59;98431.69;;;8.92;100.00
30182;BME280;16990;49.056;9.240;2022-09-17T02:39:27;98431.25;;;8.96;100.00
30182;BME280;16990;49.056;9.240;2022-09-17T02:42:02;98424.75;;;8.91;100.00
30182;BME280;16990;49.056;9.240;2022-09-17T02:44:36;98425.66;;;8.85;100.00
30182;BME280;16990;49.056;9.240;2022-09-17T02:47:35;98426.03;;;9.01;100.00
30182;BME280;16990;49.056;9.240;2022-09-17T02:50:20;98431.69;;;8.92;100.00
30182;BME280;16990;49.056;9.240;2022-09-17T02:53:04;98438.41;;;8.95;100.00
30182;BME280;16990;49.056;9.240;2022-09-17T02:55:40;98422.41;;;8.83;100.00
30182;BME280;16990;49.056;9.240;2022-09-17T02:58:18;98433.91;;;8.96;100.00
30182;BME280;16990;49.056;9.240;2022-09-17T03:00:46;98425.91;;;8.84;100.00
30182;BME280;16990;49.056;9.240;2022-09-17T03:03:19;98427.88;;;8.88;100.00
30182;BME280;16990;49.056;9.240;2022-09-17T03:05:48;98432.28;;;8.94;100.00
30182;BME280;16990;49.056;9.240;2022-09-17T03:08:16;98420.09;;;8.87;100.00
30182;BME280;16990;49.056;9.240;2022-09-17T03:10:45;98420.00;;;8.93;100.00
30182;BME280;16990;49.056;9.240;2022-09-17T03:13:14;98417.22;;;8.88;100.00
30182;BME280;16990;49.056;9.240;2022-09-17T03:15:41;98415.34;;;8.77;100.00
30182;BME280;16990;49.056;9.240;2022-09-17T03:18:08;98409.06;;;8.83;100.00
30182;BME280;16990;49.056;9.240;2022-09-17T03:20:36;98416.03;;;8.84;100.00
30182;BME280;16990;49.056;9.240;2022-09-17T03:23:02;98414.88;;;8.80;100.00
30182;BME280;16990;49.056;9.240;2022-09-17T03:25:29;98416.00;;;8.61;100.00
30182;BME280;16990;49.056;9.240;2022-09-17T03:27:56;98418.22;;;8.76;100.00
30182;BME280;16990;49.056;9.240;2022-09-17T03:30:22;98413.69;;;8.64;100.00
30182;BME280;16990;49.056;9.240;2022-09-17T03:32:49;98416.50;;;8.69;100.00
30182;BME280;16990;49.056;9.240;2022-09-17T03:35:15;98420.88;;;8.64;100.00
30182;BME280;16990;49.056;9.240;2022-09-17T03:37:43;98404.66;;;8.65;100.00
30182;BME280;16990;49.056;9.240;2022-09-17T03:40:11;98407.56;;;8.76;100.00
30182;BME280;16990;49.056;9.240;2022-09-17T03:42:38;98416.34;;;8.76;100.00
30182;BME280;16990;49.056;9.240;2022-09-17T03:45:06;98414.63;;;8.70;100.00
30182;BME280;16990;49.056;9.240;2022-09-17T03:47:33;98424.00;;;8.61;100.00
30182;BME280;16990;49.056;9.240;2022-09-17T03:49:59;98416.34;;;8.52;100.00
30182;BME280;16990;49.056;9.240;2022-09-17T03:52:26;98429.44;;;8.66;100.00
30182;BME280;16990;49.056;9.240;2022-09-17T03:54:54;98430.72;;;8.63;100.00
30182;BME280;16990;49.056;9.240;2022-09-17T03:57:20;98422.50;;;8.65;100.00
30182;BME280;16990;49.056;9.240;2022-09-17T03:59:47;98432.44;;;8.58;100.00
30182;BME280;16990;49.056;9.240;2022-09-17T04:02:14;98440.56;;;8.63;100.00
30182;BME280;16990;49.056;9.240;2022-09-17T04:04:40;98442.81;;;8.47;100.00
30182;BME280;16990;49.056;9.240;2022-09-17T04:07:07;98439.13;;;8.48;100.00
30182;BME280;16990;49.056;9.240;2022-09-17T04:09:34;98442.81;;;8.47;100.00
30182;BME280;16990;49.056;9.240;2022-09-17T04:12:02;98442.63;;;8.49;100.00
30182;BME280;16990;49.056;9.240;2022-09-17T04:14:29;98454.13;;;8.31;100.00
30182;BME280;16990;49.056;9.240;2022-09-17T04:16:57;98442.47;;;8.44;100.00
30182;BME280;16990;49.056;9.240;2022-09-17T04:19:23;98456.41;;;8.27;100.00
30182;BME280;16990;49.056;9.240;2022-09-17T04:21:50;98453.41;;;8.24;100.00
30182;BME280;16990;49.056;9.240;2022-09-17T04:24:17;98457.00;;;8.29;100.00
30182;BME280;16990;49.056;9.240;2022-09-17T04:26:44;98444.72;;;8.28;100.00
30182;BME280;16990;49.056;9.240;2022-09-17T04:29:12;98448.34;;;8.16;100.00
30182;BME280;16990;49.056;9.240;2022-09-17T04:31:38;98447.91;;;8.19;100.00
30182;BME280;16990;49.056;9.240;2022-09-17T04:34:05;98440.97;;;8.18;100.00
30182;BME280;16990;49.056;9.240;2022-09-17T04:36:32;98447.06;;;8.37;100.00
30182;BME280;16990;49.056;9.240;2022-09-17T04:38:58;98453.81;;;8.21;100.00
30182;BME280;16990;49.056;9.240;2022-09-17T04:41:25;98442.28;;;8.27;100.00
30182;BME280;16990;49.056;9.240;2022-09-17T04:43:51;98451.47;;;8.13;100.00
30182;BME280;16990;49.056;9.240;2022-09-17T04:46:19;98460.06;;;8.15;100.00
30182;BME280;16990;49.056;9.240;2022-09-17T04:48:46;98449.03;;;8.11;100.00
30182;BME280;16990;49.056;9.240;2022-09-17T04:51:13;98449.84;;;8.12;100.00
30182;BME280;16990;49.056;9.240;2022-09-17T04:53:39;98463.81;;;8.25;100.00
30182;BME280;16990;49.056;9.240;2022-09-17T04:56:06;98464.59;;;8.14;100.00
30182;BME280;16990;49.056;9.240;2022-09-17T04:58:32;98480.59;;;8.26;100.00
30182;BME280;16990;49.056;9.240;2022-09-17T05:00:59;98470.78;;;8.08;100.00
30182;BME280;16990;49.056;9.240;2022-09-17T05:03:27;98475.72;;;8.04;100.00
30182;BME280;16990;49.056;9.240;2022-09-17T05:05:54;98478.41;;;8.04;100.00
30182;BME280;16990;49.056;9.240;2022-09-17T05:08:20;98480.63;;;8.07;100.00
30182;BME280;16990;49.056;9.240;2022-09-17T05:10:49;98475.78;;;8.16;100.00
30182;BME280;16990;49.056;9.240;2022-09-17T05:13:15;98480.91;;;8.18;100.00
30182;BME280;16990;49.056;9.240;2022-09-17T05:15:42;98475.72;;;8.04;100.00
30182;BME280;16990;49.056;9.240;2022-09-17T05:18:09;98480.56;;;8.14;100.00
30182;BME280;16990;49.056;9.240;2022-09-17T05:20:37;98480.31;;;7.97;100.00
30182;BME280;16990;49.056;9.240;2022-09-17T05:23:04;98482.97;;;8.16;100.00
30182;BME280;16990;49.056;9.240;2022-09-17T05:25:30;98485.44;;;8.17;100.00
30182;BME280;16990;49.056;9.240;2022-09-17T05:27:57;98491.63;;;8.29;100.00
30182;BME280;16990;49.056;9.240;2022-09-17T05:30:25;98492.56;;;8.35;100.00
30182;BME280;16990;49.056;9.240;2022-09-17T05:32:58;98501.16;;;8.37;100.00
30182;BME280;16990;49.056;9.240;2022-09-17T05:35:24;98497.84;;;8.23;100.00
30182;BME280;16990;49.056;9.240;2022-09-17T05:37:55;98492.00;;;8.15;100.00
30182;BME280;16990;49.056;9.240;2022-09-17T05:40:22;98500.94;;;8.20;100.00
30182;BME280;16990;49.056;9.240;2022-09-17T05:42:49;98490.69;;;8.24;100.00
30182;BME280;16990;49.056;9.240;2022-09-17T05:45:15;98497.16;;;8.28;100.00
30182;BME280;16990;49.056;9.240;2022-09-17T05:47:42;98509.72;;;8.39;100.00
30182;BME280;16990;49.056;9.240;2022-09-17T05:50:09;98501.91;;;8.26;100.00
30182;BME280;16990;49.056;9.240;2022-09-17T05:52:35;98497.47;;;8.38;100.00
30182;BME280;16990;49.056;9.240;2022-09-17T05:55:04;98513.44;;;8.38;100.00
30182;BME280;16990;49.056;9.240;2022-09-17T05:57:31;98511.81;;;8.56;100.00
30182;BME280;16990;49.056;9.240;2022-09-17T05:59:57;98508.53;;;8.54;100.00
30182;BME280;16990;49.056;9.240;2022-09-17T06:02:24;98511.66;;;8.50;100.00
30182;BME280;16990;49.056;9.240;2022-09-17T06:04:50;98511.28;;;8.47;100.00
30182;BME280;16990;49.056;9.240;2022-09-17T06:07:17;98519.34;;;8.59;100.00
30182;BME280;16990;49.056;9.240;2022-09-17T06:09:44;98515.41;;;8.61;100.00
30182;BME280;16990;49.056;9.240;2022-09-17T06:12:12;98521.78;;;8.60;100.00
30182;BME280;16990;49.056;9.240;2022-09-17T06:14:38;98517.84;;;8.63;100.00
30182;BME280;16990;49.056;9.240;2022-09-17T06:17:05;98521.41;;;8.57;100.00
30182;BME280;16990;49.056;9.240;2022-09-17T06:19:31;98527.47;;;8.64;100.00
30182;BME280;16990;49.056;9.240;2022-09-17T06:21:58;98521.38;;;8.75;100.00
30182;BME280;16990;49.056;9.240;2022-09-17T06:24:25;98531.69;;;8.83;100.00
30182;BME280;16990;49.056;9.240;2022-09-17T06:26:52;98536.31;;;8.76;100.00
30182;BME280;16990;49.056;9.240;2022-09-17T06:29:20;98533.44;;;8.78;100.00
30182;BME280;16990;49.056;9.240;2022-09-17T06:31:47;98535.38;;;8.70;100.00
30182;BME280;16990;49.056;9.240;2022-09-17T06:34:14;98536.97;;;8.60;100.00
30182;BME280;16990;49.056;9.240;2022-09-17T06:36:40;98541.66;;;8.76;100.00
30182;BME280;16990;49.056;9.240;2022-09-17T06:39:07;98546.41;;;8.74;100.00
30182;BME280;16990;49.056;9.240;2022-09-17T06:41:36;98541.66;;;8.76;100.00
30182;BME280;16990;49.056;9.240;2022-09-17T06:44:03;98535.38;;;8.70;100.00
30182;BME280;16990;49.056;9.240;2022-09-17T06:46:31;98553.81;;;8.72;100.00
30182;BME280;16990;49.056;9.240;2022-09-17T06:48:57;98543.91;;;8.61;100.00
30182;BME280;16990;49.056;9.240;2022-09-17T06:51:24;98541.84;;;8.63;100.00
30182;BME280;16990;49.056;9.240;2022-09-17T06:53:50;98546.78;;;8.59;100.00
30182;BME280;16990;49.056;9.240;2022-09-17T06:56:20;98538.91;;;8.52;100.00
30182;BME280;16990;49.056;9.240;2022-09-17T06:58:47;98554.00;;;8.40;100.00
30182;BME280;16990;49.056;9.240;2022-09-17T07:01:14;98537.13;;;8.28;100.00
30182;BME280;16990;49.056;9.240;2022-09-17T07:03:42;98552.66;;;8.31;100.00
30182;BME280;16990;49.056;9.240;2022-09-17T07:06:09;98539.59;;;8.48;100.00
30182;BME280;16990;49.056;9.240;2022-09-17T07:08:36;98548.66;;;8.40;100.00
30182;BME280;16990;49.056;9.240;2022-09-17T07:11:04;98563.88;;;8.33;100.00
30182;BME280;16990;49.056;9.240;2022-09-17T07:13:31;98554.59;;;8.24;100.00
30182;BME280;16990;49.056;9.240;2022-09-17T07:15:59;98550.44;;;8.28;100.00
30182;BME280;16990;49.056;9.240;2022-09-17T07:18:26;98557.25;;;8.42;100.00
30182;BME280;16990;49.056;9.240;2022-09-17T07:20:55;98562.72;;;8.29;100.00
30182;BME280;16990;49.056;9.240;2022-09-17T07:23:22;98566.09;;;8.43;100.00
30182;BME280;16990;49.056;9.240;2022-09-17T07:25:52;98559.75;;;8.37;100.00
30182;BME280;16990;49.056;9.240;2022-09-17T07:28:19;98569.19;;;8.40;100.00
30182;BME280;16990;49.056;9.240;2022-09-17T07:30:47;98576.97;;;8.41;100.00
30182;BME280;16990;49.056;9.240;2022-09-17T07:33:14;98576.50;;;8.44;100.00
30182;BME280;16990;49.056;9.240;2022-09-17T07:35:41;98568.06;;;8.47;100.00
30182;BME280;16990;49.056;9.240;2022-09-17T07:38:08;98589.66;;;8.39;100.00
30182;BME280;16990;49.056;9.240;2022-09-17T07:40:35;98575.31;;;8.40;100.00
30182;BME280;16990;49.056;9.240;2022-09-17T07:43:02;98581.22;;;8.61;100.00
30182;BME280;16990;49.056;9.240;2022-09-17T07:45:28;98579.97;;;8.63;100.00
30182;BME280;16990;49.056;9.240;2022-09-17T07:47:55;98587.75;;;8.65;100.00
30182;BME280;16990;49.056;9.240;2022-09-17T07:50:21;98578.09;;;8.64;100.00
30182;BME280;16990;49.056;9.240;2022-09-17T07:52:48;98581.31;;;8.54;100.00
30182;BME280;16990;49.056;9.240;2022-09-17T07:55:16;98596.16;;;8.62;100.00
30182;BME280;16990;49.056;9.240;2022-09-17T07:57:43;98599.56;;;8.69;100.00
30182;BME280;16990;49.056;9.240;2022-09-17T08:00:15;98583.94;;;8.72;100.00
30182;BME280;16990;49.056;9.240;2022-09-17T08:02:42;98592.28;;;8.76;100.00
30182;BME280;16990;49.056;9.240;2022-09-17T08:05:09;98590.06;;;8.91;100.00
30182;BME280;16990;49.056;9.240;2022-09-17T08:07:35;98601.97;;;8.89;100.00
30182;BME280;16990;49.056;9.240;2022-09-17T08:10:02;98600.03;;;8.96;100.00
30182;BME280;16990;49.056;9.240;2022-09-17T08:12:31;98595.34;;;9.10;100.00
30182;BME280;16990;49.056;9.240;2022-09-17T08:14:57;98601.44;;;8.99;100.00
30182;BME280;16990;49.056;9.240;2022-09-17T08:17:24;98602.56;;;8.91;100.00
30182;BME280;16990;49.056;9.240;2022-09-17T08:19:50;98602.47;;;8.98;100.00
30182;BME280;16990;49.056;9.240;2022-09-17T08:22:18;98602.75;;;9.08;100.00
30182;BME280;16990;49.056;9.240;2022-09-17T08:24:45;98600.00;;;9.26;100.00
30182;BME280;16990;49.056;9.240;2022-09-17T08:27:12;98598.75;;;9.41;100.00
30182;BME280;16990;49.056;9.240;2022-09-17T08:29:40;98601.94;;;9.61;100.00
30182;BME280;16990;49.056;9.240;2022-09-17T08:32:07;98602.84;;;9.55;100.00
30182;BME280;16990;49.056;9.240;2022-09-17T08:34:33;98598.00;;;9.75;100.00
30182;BME280;16990;49.056;9.240;2022-09-17T08:37:01;98592.44;;;9.65;100.00
30182;BME280;16990;49.056;9.240;2022-09-17T08:39:28;98598.22;;;9.74;100.00
30182;BME280;16990;49.056;9.240;2022-09-17T08:42:02;98600.31;;;9.84;100.00
30182;BME280;16990;49.056;9.240;2022-09-17T08:44:34;98601.69;;;9.86;100.00
30182;BME280;16990;49.056;9.240;2022-09-17T08:47:12;98594.28;;;9.76;100.00
30182;BME280;16990;49.056;9.240;2022-09-17T08:49:47;98612.53;;;9.79;100.00
30182;BME280;16990;49.056;9.240;2022-09-17T08:55:33;98602.28;;;10.23;100.00
30182;BME280;16990;49.056;9.240;2022-09-17T08:58:16;98601.47;;;10.35;100.00
30182;BME280;16990;49.056;9.240;2022-09-17T09:00:55;98599.50;;;10.42;100.00
30182;BME280;16990;49.056;9.240;2022-09-17T09:03:31;98609.31;;;10.53;100.00
30182;BME280;16990;49.056;9.240;2022-09-17T09:06:04;98612.97;;;10.47;100.00
30182;BME280;16990;49.056;9.240;2022-09-17T09:08:34;98610.09;;;10.37;100.00
30182;BME280;16990;49.056;9.240;2022-09-17T09:11:04;98606.56;;;10.48;100.00
30182;BME280;16990;49.056;9.240;2022-09-17T09:13:34;98603.25;;;10.70;100.00
30182;BME280;16990;49.056;9.240;2022-09-17T09:16:05;98612.56;;;10.67;100.00
30182;BME280;16990;49.056;9.240;2022-09-17T09:18:35;98620.84;;;10.94;100.00
30182;BME280;16990;49.056;9.240;2022-09-17T09:21:14;98621.84;;;10.64;100.00
30182;BME280;16990;49.056;9.240;2022-09-17T09:23:51;98619.38;;;10.75;100.00
30182;BME280;16990;49.056;9.240;2022-09-17T09:26:22;98617.66;;;10.69;100.00
30182;BME280;16990;49.056;9.240;2022-09-17T09:29:04;98602.56;;;10.62;100.00
30182;BME280;16990;49.056;9.240;2022-09-17T09:32:01;98624.22;;;10.61;100.00
30182;BME280;16990;49.056;9.240;2022-09-17T09:34:33;98619.75;;;10.67;100.00
30182;BME280;16990;49.056;9.240;2022-09-17T09:37:11;98597.50;;;10.49;100.00
30182;BME280;16990;49.056;9.240;2022-09-17T09:39:40;98599.91;;;10.51;100.00
30182;BME280;16990;49.056;9.240;2022-09-17T09:42:10;98610.16;;;10.54;100.00
30182;BME280;16990;49.056;9.240;2022-09-17T09:44:40;98609.56;;;10.63;100.00
30182;BME280;16990;49.056;9.240;2022-09-17T09:47:17;98603.03;;;10.59;100.00
30182;BME280;16990;49.056;9.240;2022-09-17T09:50:04;98605.19;;;10.74;100.00
30182;BME280;16990;49.056;9.240;2022-09-17T09:52:48;98603.91;;;11.05;100.00
30182;BME280;16990;49.056;9.240;2022-09-17T09:55:45;98599.63;;;11.04;100.00
30182;BME280;16990;49.056;9.240;2022-09-17T09:58:23;98600.88;;;11.14;99.44
30182;BME280;16990;49.056;9.240;2022-09-17T10:00:54;98606.16;;;11.25;99.21
30182;BME280;16990;49.056;9.240;2022-09-17T10:03:22;98604.63;;;11.01;96.59
30182;BME280;16990;49.056;9.240;2022-09-17T10:05:55;98598.28;;;11.19;99.59
30182;BME280;16990;49.056;9.240;2022-09-17T10:08:23;98595.91;;;11.22;98.81
30182;BME280;16990;49.056;9.240;2022-09-17T10:10:58;98599.34;;;11.52;98.37
30182;BME280;16990;49.056;9.240;2022-09-17T10:13:26;98598.81;;;11.66;96.73
30182;BME280;16990;49.056;9.240;2022-09-17T10:15:53;98604.31;;;11.60;96.41
30182;BME280;16990;49.056;9.240;2022-09-17T10:18:21;98597.09;;;11.60;95.41
30182;BME280;16990;49.056;9.240;2022-09-17T10:20:55;98591.66;;;11.55;96.73
30182;BME280;16990;49.056;9.240;2022-09-17T10:23:23;98594.97;;;11.45;98.74
30182;BME280;16990;49.056;9.240;2022-09-17T10:25:50;98592.78;;;11.42;98.13
30182;BME280;16990;49.056;9.240;2022-09-17T10:28:44;98589.94;;;11.32;96.21
30182;BME280;16990;49.056;9.240;2022-09-17T10:31:12;98596.94;;;11.67;95.73
30182;BME280;16990;49.056;9.240;2022-09-17T10:33:50;98579.22;;;11.66;92.54
30182;BME280;16990;49.056;9.240;2022-09-17T10:36:35;98586.69;;;11.81;92.17
30182;BME280;16990;49.056;9.240;2022-09-17T10:39:30;98575.72;;;11.82;91.48
30182;BME280;16990;49.056;9.240;2022-09-17T10:41:59;98578.41;;;11.82;89.98
30182;BME280;16990;49.056;9.240;2022-09-17T10:44:27;98571.38;;;11.76;89.78
30182;BME280;16990;49.056;9.240;2022-09-17T10:47:01;98574.19;;;11.86;91.39
30182;BME280;16990;49.056;9.240;2022-09-17T10:49:36;98578.41;;;11.82;87.39
30182;BME280;16990;49.056;9.240;2022-09-17T10:52:09;98581.34;;;11.81;91.03
30182;BME280;16990;49.056;9.240;2022-09-17T10:55:03;98595.47;;;11.76;92.67
30182;BME280;16990;49.056;9.240;2022-09-17T10:57:44;98603.50;;;11.76;97.26
30182;BME280;16990;49.056;9.240;2022-09-17T11:00:16;98611.03;;;11.28;92.68
30182;BME280;16990;49.056;9.240;2022-09-17T11:06:16;98606.16;;;10.68;100.00
30182;BME280;16990;49.056;9.240;2022-09-17T11:08:56;98596.75;;;10.66;100.00
30182;BME280;16990;49.056;9.240;2022-09-17T11:11:31;98591.88;;;10.62;100.00
30182;BME280;16990;49.056;9.240;2022-09-17T11:14:07;98581.75;;;10.64;100.00
30182;BME280;16990;49.056;9.240;2022-09-17T11:16:46;98574.84;;;10.40;100.00
30182;BME280;16990;49.056;9.240;2022-09-17T11:19:24;98567.88;;;10.39;100.00
30182;BME280;16990;49.056;9.240;2022-09-17T11:21:55;98575.09;;;10.38;100.00
30182;BME280;16990;49.056;9.240;2022-09-17T11:24:38;98574.88;;;10.28;100.00
30182;BME280;16990;49.056;9.240;2022-09-17T11:27:20;98567.50;;;10.47;100.00
30182;BME280;16990;49.056;9.240;2022-09-17T11:30:03;98554.81;;;10.54;100.00
30182;BME280;16990;49.056;9.240;2022-09-17T11:32:45;98561.88;;;10.89;100.00
30182;BME280;16990;49.056;9.240;2022-09-17T11:35:20;98559.50;;;11.21;100.00
30182;BME280;16990;49.056;9.240;2022-09-17T11:37:52;98554.59;;;11.30;100.00
30182;BME280;16990;49.056;9.240;2022-09-17T11:40:25;98562.25;;;11.77;100.00
30182;BME280;16990;49.056;9.240;2022-09-17T11:43:01;98563.84;;;11.90;100.00
30182;BME280;16990;49.056;9.240;2022-09-17T11:45:32;98555.94;;;12.00;100.00
30182;BME280;16990;49.056;9.240;2022-09-17T11:48:05;98561.75;;;12.14;100.00
30182;BME280;16990;49.056;9.240;2022-09-17T11:50:39;98560.44;;;12.39;100.00
30182;BME280;16990;49.056;9.240;2022-09-17T11:53:14;98549.22;;;12.42;99.51
30182;BME280;16990;49.056;9.240;2022-09-17T11:55:48;98539.22;;;12.59;100.00
30182;BME280;16990;49.056;9.240;2022-09-17T11:58:28;98525.88;;;12.64;100.00
30182;BME280;16990;49.056;9.240;2022-09-17T12:01:00;98530.19;;;12.43;95.65
30182;BME280;16990;49.056;9.240;2022-09-17T12:03:33;98532.28;;;12.63;96.02
30182;BME280;16990;49.056;9.240;2022-09-17T12:06:04;98532.94;;;12.75;94.15
30182;BME280;16990;49.056;9.240;2022-09-17T12:08:41;98532.16;;;12.75;94.36
30182;BME280;16990;49.056;9.240;2022-09-17T12:11:17;98530.84;;;12.77;94.11
30182;BME280;16990;49.056;9.240;2022-09-17T12:13:47;98532.09;;;12.70;92.20
30182;BME280;16990;49.056;9.240;2022-09-17T12:16:19;98522.22;;;12.75;91.20
30182;BME280;16990;49.056;9.240;2022-09-17T12:18:54;98521.66;;;13.01;94.01
30182;BME280;16990;49.056;9.240;2022-09-17T12:21:25;98517.97;;;12.80;92.28
30182;BME280;16990;49.056;9.240;2022-09-17T12:23:58;98514.34;;;12.91;92.41
30182;BME280;16990;49.056;9.240;2022-09-17T12:26:48;98511.91;;;12.62;89.35
30182;BME280;16990;49.056;9.240;2022-09-17T12:29:29;98505.69;;;12.34;87.84
30182;BME280;16990;49.056;9.240;2022-09-17T12:32:04;98519.66;;;12.37;87.77
30182;BME280;16990;49.056;9.240;2022-09-17T12:34:45;98524.41;;;12.29;89.27
30182;BME280;16990;49.056;9.240;2022-09-17T12:37:22;98529.31;;;12.38;88.30
30182;BME280;16990;49.056;9.240;2022-09-17T12:40:02;98541.72;;;12.44;84.50
30182;BME280;16990;49.056;9.240;2022-09-17T12:42:43;98539.19;;;12.32;85.68
30182;BME280;16990;49.056;9.240;2022-09-17T12:45:21;98533.03;;;12.59;86.06
30182;BME280;16990;49.056;9.240;2022-09-17T12:48:04;98561.09;;;12.73;87.26
30182;BME280;16990;49.056;9.240;2022-09-17T12:50:44;98549.19;;;11.98;83.24
30182;BME280;16990;49.056;9.240;2022-09-17T12:53:22;98554.00;;;11.62;85.16
30182;BME280;16990;49.056;9.240;2022-09-17T12:56:05;98536.22;;;11.73;83.77
30182;BME280;16990;49.056;9.240;2022-09-17T12:58:53;98545.53;;;12.26;82.64
30182;BME280;16990;49.056;9.240;2022-09-17T13:01:29;98541.06;;;12.31;83.50
30182;BME280;16990;49.056;9.240;2022-09-17T13:04:06;98541.47;;;12.23;83.60
30182;BME280;16990;49.056;9.240;2022-09-17T13:06:55;98542.72;;;12.38;82.41
30182;BME280;16990;49.056;9.240;2022-09-17T13:09:36;98540.53;;;12.56;85.49
30182;BME280;16990;49.056;9.240;2022-09-17T13:12:11;98540.66;;;12.94;83.71
30182;BME280;16990;49.056;9.240;2022-09-17T13:14:55;98545.63;;;13.07;83.74
30182;BME280;16990;49.056;9.240;2022-09-17T13:17:27;98547.03;;;12.88;81.06
30182;BME280;16990;49.056;9.240;2022-09-17T13:20:02;98547.59;;;12.90;84.32
30182;BME280;16990;49.056;9.240;2022-09-17T13:22:31;98545.31;;;12.76;80.24
30182;BME280;16990;49.056;9.240;2022-09-17T13:25:04;98542.81;;;12.97;77.54
30182;BME280;16990;49.056;9.240;2022-09-17T13:27:32;98554.03;;;12.89;77.76
30182;BME280;16990;49.056;9.240;2022-09-17T13:30:05;98549.03;;;12.75;75.20